createdAt,value
2018-08-23T00:00:37.300Z,18.44
2018-08-23T00:03:12.976Z,18.19
2018-08-23T00:05:44.679Z,18.19
2018-08-23T00:08:11.708Z,18.15
2018-08-23T00:10:38.693Z,18.14
2018-08-23T00:13:06.359Z,18.10
2018-08-23T00:15:33.417Z,17.74
2018-08-23T00:18:00.444Z,18.19
2018-08-23T00:20:27.440Z,18.19
2018-08-23T00:23:02.507Z,17.99
2018-08-23T00:25:31.053Z,17.99
2018-08-23T00:27:58.168Z,17.97
2018-08-23T00:30:28.089Z,17.97
2018-08-23T00:32:55.240Z,17.87
2018-08-23T00:35:22.917Z,17.82
2018-08-23T00:37:49.952Z,17.88
2018-08-23T00:40:17.432Z,17.78
2018-08-23T00:43:18.000Z,17.73
2018-08-23T00:45:45.552Z,17.81
2018-08-23T00:48:12.575Z,17.59
2018-08-23T00:50:46.468Z,17.72
2018-08-23T00:53:13.844Z,17.54
2018-08-23T00:55:40.867Z,17.39
2018-08-23T00:58:07.885Z,17.29
2018-08-23T01:00:34.933Z,17.44
2018-08-23T01:03:03.287Z,17.38
2018-08-23T01:05:34.282Z,17.63
2018-08-23T01:08:02.427Z,17.53
2018-08-23T01:10:29.484Z,17.29
2018-08-23T01:12:58.668Z,17.09
2018-08-23T01:15:25.904Z,16.93
2018-08-23T01:18:07.485Z,16.97
2018-08-23T01:20:34.541Z,17.17
2018-08-23T01:23:01.602Z,17.24
2018-08-23T01:25:32.467Z,17.04
2018-08-23T01:27:59.536Z,17.01
2018-08-23T01:30:26.561Z,17.03
2018-08-23T01:32:53.608Z,17.06
2018-08-23T01:35:20.688Z,17.01
2018-08-23T01:37:47.673Z,17.09
2018-08-23T01:40:14.700Z,17.07
2018-08-23T01:42:41.893Z,16.90
2018-08-23T01:45:09.998Z,17.02
2018-08-23T01:47:44.249Z,17.04
2018-08-23T01:50:12.023Z,16.93
2018-08-23T01:52:43.161Z,16.68
2018-08-23T01:55:10.619Z,16.67
2018-08-23T01:57:37.668Z,16.65
2018-08-23T02:00:04.743Z,16.73
2018-08-23T02:02:31.716Z,16.71
2018-08-23T02:04:58.699Z,17.05
2018-08-23T02:07:25.746Z,17.10
2018-08-23T02:09:52.811Z,16.87
2018-08-23T02:12:19.836Z,16.94
2018-08-23T02:14:46.836Z,16.79
2018-08-23T02:17:14.053Z,16.67
2018-08-23T02:19:48.460Z,16.88
2018-08-23T02:22:15.520Z,16.91
2018-08-23T02:24:47.372Z,17.04
2018-08-23T02:27:15.212Z,16.86
2018-08-23T02:29:45.623Z,16.88
2018-08-23T02:32:12.705Z,16.78
2018-08-23T02:34:41.590Z,16.83
2018-08-23T02:37:10.240Z,16.74
2018-08-23T02:39:37.232Z,16.65
2018-08-23T02:42:04.364Z,16.67
2018-08-23T02:44:31.406Z,16.64
2018-08-23T02:47:00.888Z,16.65
2018-08-23T02:49:27.888Z,16.68
2018-08-23T02:51:54.940Z,16.82
2018-08-23T02:54:21.959Z,16.95
2018-08-23T02:56:57.112Z,16.84
2018-08-23T02:59:24.216Z,16.83
2018-08-23T03:01:51.288Z,16.67
2018-08-23T03:04:19.549Z,16.55
2018-08-23T03:06:52.753Z,16.46
2018-08-23T03:09:22.028Z,16.47
2018-08-23T03:11:50.201Z,16.57
2018-08-23T03:14:17.984Z,16.58
2018-08-23T03:16:52.467Z,16.55
2018-08-23T03:19:19.454Z,16.49
2018-08-23T03:21:49.651Z,16.46
2018-08-23T03:24:18.979Z,16.44
2018-08-23T03:26:47.235Z,16.35
2018-08-23T03:29:14.219Z,16.50
2018-08-23T03:31:41.399Z,16.53
2018-08-23T03:34:08.476Z,16.50
2018-08-23T03:36:35.468Z,16.33
2018-08-23T03:39:02.545Z,16.37
2018-08-23T03:41:29.541Z,16.29
2018-08-23T03:43:56.551Z,16.22
2018-08-23T03:46:23.534Z,16.23
2018-08-23T03:48:55.157Z,16.23
2018-08-23T03:51:22.149Z,16.17
2018-08-23T03:53:55.013Z,16.20
2018-08-23T03:56:21.996Z,16.20
2018-08-23T03:58:49.065Z,16.14
2018-08-23T04:01:16.083Z,16.34
2018-08-23T04:03:43.140Z,16.32
2018-08-23T04:06:37.107Z,16.24
2018-08-23T04:09:07.275Z,16.22
2018-08-23T04:11:34.279Z,16.32
2018-08-23T04:14:07.676Z,16.25
2018-08-23T04:16:34.721Z,16.39
2018-08-23T04:19:01.693Z,16.49
2018-08-23T04:21:29.402Z,16.58
2018-08-23T04:23:56.461Z,16.64
2018-08-23T04:26:24.515Z,16.56
2018-08-23T04:28:51.582Z,16.43
2018-08-23T04:31:18.694Z,16.52
2018-08-23T04:33:46.051Z,16.59
2018-08-23T04:36:32.142Z,16.60
2018-08-23T04:39:00.132Z,16.63
2018-08-23T04:41:28.276Z,16.62
2018-08-23T04:43:58.704Z,16.72
2018-08-23T04:46:25.727Z,16.77
2018-08-23T04:48:52.695Z,16.83
2018-08-23T04:51:19.671Z,16.88
2018-08-23T04:53:46.683Z,16.88
2018-08-23T04:56:13.671Z,17.01
2018-08-23T04:58:40.743Z,17.03
2018-08-23T05:01:07.827Z,17.06
2018-08-23T05:03:34.907Z,17.06
2018-08-23T05:06:01.886Z,17.13
2018-08-23T05:08:28.894Z,17.15
2018-08-23T05:10:55.900Z,17.21
2018-08-23T05:13:22.980Z,17.25
2018-08-23T05:15:49.976Z,17.41
2018-08-23T05:18:17.387Z,17.39
2018-08-23T05:20:44.373Z,17.61
2018-08-23T05:23:11.400Z,17.54
2018-08-23T05:25:38.339Z,17.56
2018-08-23T05:28:18.942Z,17.60
2018-08-23T05:30:46.633Z,17.58
2018-08-23T05:33:17.471Z,17.59
2018-08-23T05:35:45.749Z,17.64
2018-08-23T05:38:13.195Z,17.74
2018-08-23T05:40:48.318Z,17.65
2018-08-23T05:43:15.903Z,17.80
2018-08-23T05:45:55.716Z,17.71
2018-08-23T05:48:31.648Z,17.71
2018-08-23T05:51:05.540Z,17.75
2018-08-23T05:53:32.815Z,17.89
2018-08-23T05:56:01.266Z,17.94
2018-08-23T05:58:30.253Z,17.82
2018-08-23T06:00:57.283Z,17.86
2018-08-23T06:03:24.262Z,18.23
2018-08-23T06:05:52.004Z,18.23
2018-08-23T06:08:19.517Z,18.11
2018-08-23T06:10:47.631Z,18.04
2018-08-23T06:13:15.172Z,17.99
2018-08-23T06:15:50.819Z,17.90
2018-08-23T06:18:18.497Z,18.08
2018-08-23T06:20:45.599Z,18.05
2018-08-23T06:23:13.004Z,18.14
2018-08-23T06:25:40.362Z,18.23
2018-08-23T06:28:25.944Z,18.28
2018-08-23T06:30:57.068Z,18.32
2018-08-23T06:33:37.815Z,18.29
2018-08-23T06:36:05.591Z,18.26
2018-08-23T06:38:33.675Z,18.34
2018-08-23T06:41:01.787Z,18.35
2018-08-23T06:43:29.172Z,18.47
2018-08-23T06:45:56.230Z,18.48
2018-08-23T06:48:23.283Z,18.54
2018-08-23T06:50:57.175Z,18.59
2018-08-23T06:53:33.113Z,18.64
2018-08-23T06:56:00.227Z,18.69
2018-08-23T06:58:27.189Z,18.78
2018-08-23T07:00:54.240Z,18.77
2018-08-23T07:03:21.320Z,18.89
2018-08-23T07:05:48.404Z,19.04
2018-08-23T07:08:15.387Z,19.07
2018-08-23T07:10:42.428Z,19.11
2018-08-23T07:13:09.379Z,19.23
2018-08-23T07:15:36.474Z,19.27
2018-08-23T07:18:07.960Z,19.26
2018-08-23T07:20:35.075Z,19.29
2018-08-23T07:23:02.166Z,19.23
2018-08-23T07:25:33.882Z,19.12
2018-08-23T07:28:00.856Z,19.19
2018-08-23T07:30:28.948Z,19.28
2018-08-23T07:32:56.022Z,19.38
2018-08-23T07:35:23.025Z,19.56
2018-08-23T07:37:51.287Z,19.79
2018-08-23T07:40:20.288Z,19.63
2018-08-23T07:42:48.632Z,19.67
2018-08-23T07:45:15.724Z,19.82
2018-08-23T07:47:51.072Z,19.86
2018-08-23T07:50:19.777Z,19.96
2018-08-23T07:52:50.087Z,20.05
2018-08-23T07:55:17.187Z,20.16
2018-08-23T07:57:46.191Z,20.29
2018-08-23T08:00:34.439Z,20.36
2018-08-23T08:03:01.510Z,20.50
2018-08-23T08:05:31.219Z,20.62
2018-08-23T08:07:58.208Z,20.73
2018-08-23T08:10:30.128Z,20.82
2018-08-23T08:12:57.380Z,20.89
2018-08-23T08:15:24.489Z,20.92
2018-08-23T08:17:51.542Z,20.90
2018-08-23T08:20:18.720Z,20.95
2018-08-23T08:22:46.041Z,21.01
2018-08-23T08:25:20.621Z,21.09
2018-08-23T08:27:48.851Z,21.27
2018-08-23T08:30:19.306Z,21.30
2018-08-23T08:32:46.407Z,21.31
2018-08-23T08:35:19.672Z,21.44
2018-08-23T08:37:48.143Z,21.50
2018-08-23T08:40:20.884Z,21.58
2018-08-23T08:42:48.053Z,21.62
2018-08-23T08:45:15.077Z,21.58
2018-08-23T08:47:44.712Z,21.55
2018-08-23T08:50:13.856Z,21.63
2018-08-23T08:52:40.976Z,21.63
2018-08-23T08:55:10.473Z,21.72
2018-08-23T08:57:42.350Z,21.74
2018-08-23T09:00:09.949Z,21.83
2018-08-23T09:02:37.196Z,21.89
2018-08-23T09:05:04.672Z,21.95
2018-08-23T09:07:32.754Z,21.81
2018-08-23T09:09:59.828Z,21.88
2018-08-23T09:12:29.690Z,21.91
2018-08-23T09:14:57.127Z,22.05
2018-08-23T09:17:51.882Z,22.18
2018-08-23T09:20:19.167Z,22.53
2018-08-23T09:22:48.188Z,22.78
2018-08-23T09:25:23.325Z,22.96
2018-08-23T09:27:50.907Z,23.24
2018-08-23T09:30:23.564Z,23.33
2018-08-23T09:32:50.592Z,23.22
2018-08-23T09:35:17.937Z,23.46
2018-08-23T09:37:46.100Z,23.62
2018-08-23T09:40:13.232Z,23.49
2018-08-23T09:42:40.245Z,23.15
2018-08-23T09:45:16.947Z,23.15
2018-08-23T09:47:43.999Z,23.28
2018-08-23T09:50:11.044Z,23.60
2018-08-23T09:52:42.898Z,23.63
2018-08-23T09:55:12.085Z,23.67
2018-08-23T09:57:39.180Z,23.65
2018-08-23T10:00:07.907Z,23.81
2018-08-23T10:02:40.764Z,23.59
2018-08-23T10:05:12.370Z,23.47
2018-08-23T10:07:45.050Z,23.58
2018-08-23T10:10:17.825Z,23.66
2018-08-23T10:12:50.487Z,23.42
2018-08-23T10:15:23.099Z,23.24
2018-08-23T10:17:55.743Z,23.34
2018-08-23T10:20:28.515Z,23.45
2018-08-23T10:23:01.649Z,23.73
2018-08-23T10:25:50.174Z,23.77
2018-08-23T10:28:21.698Z,23.97
2018-08-23T10:30:48.956Z,24.10
2018-08-23T10:33:17.458Z,24.11
2018-08-23T10:36:01.468Z,24.36
2018-08-23T10:38:28.644Z,24.66
2018-08-23T10:41:01.364Z,24.75
2018-08-23T10:43:40.874Z,24.45
2018-08-23T10:46:07.893Z,24.45
2018-08-23T10:48:35.080Z,24.30
2018-08-23T10:51:02.133Z,24.59
2018-08-23T10:53:29.185Z,24.50
2018-08-23T10:55:56.259Z,24.43
2018-08-23T10:58:23.296Z,24.42
2018-08-23T11:00:50.275Z,24.52
2018-08-23T11:03:17.372Z,24.30
2018-08-23T11:05:45.648Z,24.18
2018-08-23T11:08:18.264Z,24.19
2018-08-23T11:10:51.135Z,24.35
2018-08-23T11:13:23.824Z,24.63
2018-08-23T11:15:55.800Z,24.55
2018-08-23T11:18:29.788Z,24.48
2018-08-23T11:20:56.895Z,24.29
2018-08-23T11:23:25.302Z,24.42
2018-08-23T11:25:52.292Z,24.30
2018-08-23T11:28:19.752Z,24.31
2018-08-23T11:30:46.733Z,24.18
2018-08-23T11:33:14.020Z,24.07
2018-08-23T11:35:41.291Z,23.94
2018-08-23T11:38:12.027Z,23.98
2018-08-23T11:40:41.435Z,24.06
2018-08-23T11:43:14.616Z,24.38
2018-08-23T11:45:46.469Z,24.70
2018-08-23T11:48:14.860Z,24.28
2018-08-23T11:50:44.023Z,24.05
2018-08-23T11:56:01.336Z,24.22
2018-08-23T11:58:37.207Z,24.14
2018-08-23T12:01:12.325Z,24.45
2018-08-23T12:03:45.975Z,24.55
2018-08-23T12:06:23.720Z,24.56
2018-08-23T12:08:54.760Z,24.54
2018-08-23T12:11:22.831Z,24.75
2018-08-23T12:13:55.391Z,24.80
2018-08-23T12:16:30.859Z,24.99
2018-08-23T12:18:58.024Z,25.20
2018-08-23T12:21:26.937Z,25.28
2018-08-23T12:23:55.973Z,25.41
2018-08-23T12:26:26.777Z,25.39
2018-08-23T12:29:00.936Z,25.41
2018-08-23T12:31:33.098Z,25.52
2018-08-23T12:34:10.942Z,25.66
2018-08-23T12:36:47.653Z,25.40
2018-08-23T12:39:23.273Z,25.43
2018-08-23T12:41:57.213Z,25.61
2018-08-23T12:44:27.123Z,25.96
2018-08-23T12:47:01.788Z,25.85
2018-08-23T12:49:32.417Z,25.83
2018-08-23T12:52:07.911Z,25.92
2018-08-23T12:54:36.591Z,26.00
2018-08-23T12:57:13.883Z,26.16
2018-08-23T12:59:42.311Z,26.53
2018-08-23T13:02:10.635Z,26.33
2018-08-23T13:04:41.735Z,26.65
2018-08-23T13:07:13.533Z,25.80
2018-08-23T13:09:42.069Z,25.66
2018-08-23T13:12:12.514Z,25.75
2018-08-23T13:14:42.149Z,25.98
2018-08-23T13:17:14.189Z,26.06
2018-08-23T13:19:51.104Z,26.28
2018-08-23T13:22:26.100Z,26.52
2018-08-23T13:25:06.006Z,26.72
2018-08-23T13:27:36.677Z,26.40
2018-08-23T13:30:08.709Z,26.42
2018-08-23T13:32:40.114Z,26.93
2018-08-23T13:35:15.188Z,27.30
2018-08-23T13:37:42.425Z,27.50
2018-08-23T13:40:27.547Z,27.82
2018-08-23T13:43:01.313Z,27.67
2018-08-23T13:45:37.326Z,27.37
2018-08-23T13:48:08.366Z,27.31
2018-08-23T13:50:38.389Z,27.61
2018-08-23T13:53:11.281Z,28.27
2018-08-23T13:55:38.899Z,28.07
2018-08-23T13:58:06.437Z,27.49
2018-08-23T14:00:40.024Z,27.56
2018-08-23T14:03:12.147Z,27.69
2018-08-23T14:05:40.698Z,28.03
2018-08-23T14:10:40.471Z,27.80
2018-08-23T14:13:09.045Z,28.11
2018-08-23T14:15:47.454Z,27.85
2018-08-23T14:18:22.693Z,27.94
2018-08-23T14:20:52.363Z,27.86
2018-08-23T14:23:26.890Z,27.33
2018-08-23T14:26:07.139Z,26.99
2018-08-23T14:28:39.071Z,26.96
2018-08-23T14:31:09.475Z,27.17
2018-08-23T14:33:38.731Z,27.36
2018-08-23T14:36:14.632Z,27.04
2018-08-23T14:38:52.333Z,26.92
2018-08-23T14:41:22.625Z,26.91
2018-08-23T14:43:56.532Z,26.91
2018-08-23T14:46:29.433Z,26.82
2018-08-23T14:48:58.616Z,26.80
2018-08-23T14:51:27.243Z,26.66
2018-08-23T14:53:56.811Z,26.42
2018-08-23T14:56:29.898Z,26.47
2018-08-23T14:59:03.171Z,26.42
2018-08-23T15:01:32.401Z,26.36
2018-08-23T15:04:03.749Z,26.37
2018-08-23T15:06:31.959Z,26.20
2018-08-23T15:09:01.030Z,26.15
2018-08-23T15:11:31.761Z,26.22
2018-08-23T15:14:00.935Z,26.07
2018-08-23T15:16:34.876Z,26.15
2018-08-23T15:19:06.011Z,26.23
2018-08-23T15:21:36.078Z,26.11
2018-08-23T15:24:04.165Z,26.06
2018-08-23T15:26:31.292Z,26.09
2018-08-23T15:28:58.261Z,26.14
2018-08-23T15:31:25.386Z,26.19
2018-08-23T15:33:52.467Z,25.88
2018-08-23T15:36:19.580Z,25.81
2018-08-23T15:38:46.923Z,25.80
2018-08-23T15:41:13.990Z,25.65
2018-08-23T15:43:41.068Z,25.74
2018-08-23T15:46:08.061Z,25.72
2018-08-23T15:48:35.052Z,25.73
2018-08-23T15:51:02.078Z,25.47
2018-08-23T15:53:29.083Z,25.55
2018-08-23T15:55:56.194Z,25.51
2018-08-23T15:58:23.119Z,25.42
2018-08-23T16:00:50.119Z,25.34
2018-08-23T16:03:17.132Z,25.12
2018-08-23T16:05:44.108Z,25.18
2018-08-23T16:08:11.091Z,24.98
2018-08-23T16:10:38.075Z,24.91
2018-08-23T16:13:05.121Z,24.88
2018-08-23T16:15:32.430Z,24.81
2018-08-23T16:18:05.288Z,25.00
2018-08-23T16:20:37.911Z,24.97
2018-08-23T16:23:04.911Z,24.88
2018-08-23T16:25:37.609Z,24.77
2018-08-23T16:28:05.156Z,24.71
2018-08-23T16:30:32.142Z,24.71
2018-08-23T16:32:59.205Z,24.54
2018-08-23T16:35:26.188Z,24.44
2018-08-23T16:37:53.786Z,24.40
2018-08-23T16:40:26.369Z,24.31
2018-08-23T16:42:53.476Z,24.20
2018-08-23T16:45:20.596Z,24.06
2018-08-23T16:47:47.608Z,24.04
2018-08-23T16:50:14.604Z,24.08
2018-08-23T16:52:41.712Z,24.04
2018-08-23T16:55:08.925Z,23.94
2018-08-23T16:57:36.043Z,23.86
2018-08-23T17:00:03.121Z,23.78
2018-08-23T17:02:30.112Z,23.66
2018-08-23T17:04:57.188Z,23.75
2018-08-23T17:07:24.291Z,23.71
2018-08-23T17:09:51.340Z,23.66
2018-08-23T17:12:18.356Z,23.63
2018-08-23T17:14:45.408Z,23.61
2018-08-23T17:17:18.643Z,23.55
2018-08-23T17:19:45.734Z,23.54
2018-08-23T17:22:12.749Z,23.46
2018-08-23T17:24:40.083Z,23.38
2018-08-23T17:27:07.146Z,23.37
2018-08-23T17:29:34.464Z,23.31
2018-08-23T17:32:01.481Z,23.18
2018-08-23T17:34:28.504Z,23.13
2018-08-23T17:36:55.521Z,23.13
2018-08-23T17:39:22.549Z,23.08
2018-08-23T17:41:49.620Z,23.04
2018-08-23T17:44:16.869Z,22.98
2018-08-23T17:46:43.863Z,22.98
2018-08-23T17:49:11.012Z,23.00
2018-08-23T17:51:37.997Z,22.97
2018-08-23T17:54:05.119Z,22.98
2018-08-23T17:56:32.121Z,22.93
2018-08-23T17:58:59.144Z,22.87
2018-08-23T18:01:26.181Z,22.83
2018-08-23T18:03:53.344Z,22.77
2018-08-23T18:06:20.328Z,22.73
2018-08-23T18:08:47.439Z,22.76
2018-08-23T18:11:14.476Z,22.73
2018-08-23T18:13:41.463Z,22.72
2018-08-23T18:17:12.276Z,22.69
2018-08-23T18:19:39.344Z,22.62
2018-08-23T18:22:06.386Z,22.59
2018-08-23T18:24:33.580Z,22.58
2018-08-23T18:27:00.761Z,22.52
2018-08-23T18:29:27.800Z,22.43
2018-08-23T18:31:54.819Z,22.36
2018-08-23T18:34:21.864Z,22.38
2018-08-23T18:36:48.883Z,22.36
2018-08-23T18:39:16.150Z,22.34
2018-08-23T18:41:43.664Z,22.17
2018-08-23T18:44:10.672Z,22.15
2018-08-23T18:46:37.755Z,22.11
2018-08-23T18:49:05.073Z,22.09
2018-08-23T18:51:32.063Z,21.98
2018-08-23T18:53:59.959Z,21.93
2018-08-23T18:56:27.683Z,21.92
2018-08-23T18:58:55.135Z,21.93
2018-08-23T19:01:22.236Z,21.82
2018-08-23T19:03:49.391Z,21.73
2018-08-23T19:06:16.367Z,21.75
2018-08-23T19:08:43.470Z,21.83
2018-08-23T19:11:10.551Z,21.77
2018-08-23T19:13:37.654Z,21.66
2018-08-23T19:17:07.993Z,21.48
2018-08-23T19:19:34.984Z,21.48
2018-08-23T19:22:13.982Z,21.46
2018-08-23T19:27:15.092Z,21.37
2018-08-23T19:29:42.163Z,21.36
2018-08-23T19:32:09.143Z,21.32
2018-08-23T19:34:36.149Z,21.31
2018-08-23T19:37:03.285Z,21.26
2018-08-23T19:39:30.279Z,21.25
2018-08-23T19:41:57.280Z,21.17
2018-08-23T19:47:19.259Z,21.01
2018-08-23T19:49:55.889Z,20.96
2018-08-23T19:52:23.078Z,20.93
2018-08-23T19:54:50.596Z,20.86
2018-08-23T19:57:17.584Z,20.85
2018-08-23T19:59:44.791Z,20.83
2018-08-23T20:02:11.891Z,20.80
2018-08-23T20:04:39.491Z,20.77
2018-08-23T20:07:06.520Z,20.73
2018-08-23T20:09:33.529Z,20.69
2018-08-23T20:12:00.610Z,20.67
2018-08-23T20:14:27.772Z,20.64
2018-08-23T20:16:54.779Z,20.58
2018-08-23T20:19:21.863Z,20.56
2018-08-23T20:21:48.865Z,20.54
2018-08-23T20:24:15.893Z,20.53
2018-08-23T20:26:42.879Z,20.52
2018-08-23T20:29:09.901Z,20.51
2018-08-23T20:31:36.880Z,20.51
2018-08-23T20:34:03.876Z,20.50
2018-08-23T20:36:30.871Z,20.49
2018-08-23T20:38:57.997Z,20.48
2018-08-23T20:41:24.953Z,20.47
2018-08-23T20:43:51.940Z,20.45
2018-08-23T20:46:18.945Z,20.45
2018-08-23T20:48:45.940Z,20.43
2018-08-23T20:51:12.987Z,20.43
2018-08-23T20:53:40.093Z,20.42
2018-08-23T20:56:07.063Z,20.43
2018-08-23T20:58:34.113Z,20.44
2018-08-23T21:01:01.209Z,20.43
2018-08-23T21:03:28.257Z,20.43
2018-08-23T21:05:55.247Z,20.43
2018-08-23T21:08:22.228Z,20.42
2018-08-23T21:10:49.255Z,20.42
2018-08-23T21:13:16.250Z,20.46
2018-08-23T21:15:43.232Z,20.45
2018-08-23T21:18:12.060Z,20.47
2018-08-23T21:20:40.851Z,20.47
2018-08-23T21:23:07.928Z,20.47
2018-08-23T21:25:34.924Z,20.48
2018-08-23T21:28:01.937Z,20.47
2018-08-23T21:30:35.766Z,20.47
2018-08-23T21:33:02.782Z,20.47
2018-08-23T21:35:29.763Z,20.46
2018-08-23T21:37:57.123Z,20.45
2018-08-23T21:40:24.147Z,20.46
2018-08-23T21:42:51.123Z,20.47
2018-08-23T21:45:18.279Z,20.47
2018-08-23T21:47:45.281Z,20.48
2018-08-23T21:50:12.357Z,20.48
2018-08-23T21:52:39.379Z,20.48
2018-08-23T21:55:06.385Z,20.45
2018-08-23T21:57:33.471Z,20.47
2018-08-23T22:00:00.824Z,20.45
2018-08-23T22:02:27.871Z,20.45
2018-08-23T22:04:56.056Z,20.46
2018-08-23T22:07:23.103Z,20.45
2018-08-23T22:09:51.222Z,20.46
2018-08-23T22:12:20.807Z,20.46
2018-08-23T22:14:48.231Z,20.46
2018-08-23T22:17:15.543Z,20.47
2018-08-23T22:19:42.576Z,20.50
2018-08-23T22:22:10.114Z,20.52
2018-08-23T22:24:37.300Z,20.52
2018-08-23T22:27:04.787Z,20.54
2018-08-23T22:29:32.083Z,20.55
2018-08-23T22:31:59.043Z,20.56
2018-08-23T22:34:26.016Z,20.57
2018-08-23T22:36:53.042Z,20.59
2018-08-23T22:39:20.509Z,20.57
2018-08-23T22:41:47.765Z,20.58
2018-08-23T22:44:15.628Z,20.60
2018-08-23T22:46:43.164Z,20.59
2018-08-23T22:49:10.192Z,20.59
2018-08-23T22:51:37.542Z,20.59
2018-08-23T22:54:04.658Z,20.58
2018-08-23T22:56:31.762Z,20.60
2018-08-23T22:58:58.883Z,20.60
2018-08-23T23:06:24.759Z,20.59
2018-08-23T23:08:51.739Z,20.59
2018-08-23T23:11:18.816Z,20.57
2018-08-23T23:13:45.825Z,20.59
2018-08-23T23:16:12.855Z,20.57
2018-08-23T23:18:39.886Z,20.56
2018-08-23T23:21:06.880Z,20.59
2018-08-23T23:23:34.173Z,20.56
2018-08-23T23:26:01.172Z,20.51
2018-08-23T23:28:28.239Z,20.47
2018-08-23T23:30:55.302Z,20.41
2018-08-23T23:33:22.454Z,20.37
2018-08-23T23:35:49.542Z,20.30
2018-08-23T23:38:16.535Z,20.28
2018-08-23T23:40:43.520Z,20.23
2018-08-23T23:43:10.620Z,20.17
2018-08-23T23:45:37.709Z,20.15
2018-08-23T23:48:04.704Z,20.11
2018-08-23T23:50:32.119Z,20.07
2018-08-23T23:52:59.167Z,20.02
2018-08-23T23:55:26.143Z,19.98
2018-08-23T23:57:53.561Z,19.95
